Time;durP1;ratioP1;P1;durP2;ratioP2;P2;SDS_P1;SDS_P2;PMS_P1;PMS_P2;Temp;Humidity;BMP_temperature;BMP_pressure;BME280_temperature;BME280_humidity;BME280_pressure;Samples;Min_cycle;Max_cycle;Signal;HPM_P1;HPM_P2
2022/11/17 00:02:37;;;;;;;20.70;9.20;;;;;;;;;;6189867;23;20498;-91
2022/11/17 00:05:42;;;;;;;19.52;9.35;;;;;;;;;;6171583;23;20188;-90
2022/11/17 00:08:49;;;;;;;23.00;9.90;;;;;;;;;;6173444;23;20241;-87
2022/11/17 00:15:19;;;;;;;22.05;9.93;;;;;;;;;;6171675;23;20196;-90
2022/11/17 00:21:47;;;;;;;22.20;9.98;;;;;;;;;;6187686;23;20244;-87
2022/11/17 00:24:54;;;;;;;21.02;9.50;;;;;;;;;;6170509;23;20188;-90
2022/11/17 00:27:59;;;;;;;22.23;9.97;;;;;;;;;;6168964;23;20177;-88
2022/11/17 00:34:27;;;;;;;24.43;10.10;;;;;;;;;;6170276;23;20187;-90
2022/11/17 00:37:34;;;;;;;30.15;10.85;;;;;;;;;;6170639;23;20241;-88
2022/11/17 00:40:41;;;;;;;24.87;10.50;;;;;;;;;;6170599;23;20172;-89
2022/11/17 00:43:46;;;;;;;22.27;10.37;;;;;;;;;;6169542;23;20156;-92
2022/11/17 00:46:51;;;;;;;25.67;10.60;;;;;;;;;;6170526;23;20172;-91
2022/11/17 00:49:56;;;;;;;23.40;9.85;;;;;;;;;;6169437;23;20238;-91
2022/11/17 00:53:02;;;;;;;21.20;8.83;;;;;;;;;;6169201;23;20180;-90
2022/11/17 00:56:08;;;;;;;21.87;8.43;;;;;;;;;;6170413;23;20172;-90
2022/11/17 00:59:13;;;;;;;20.50;9.38;;;;;;;;;;6170820;23;20169;-92
2022/11/17 01:02:19;;;;;;;21.63;9.83;;;;;;;;;;6171130;23;20168;-93
2022/11/17 01:05:24;;;;;;;20.15;9.02;;;;;;;;;;6187309;23;20241;-90
2022/11/17 01:08:30;;;;;;;19.90;8.73;;;;;;;;;;6169299;23;20173;-89
2022/11/17 01:11:36;;;;;;;21.75;8.98;;;;;;;;;;6171955;23;20249;-90
2022/11/17 01:14:41;;;;;;;20.87;8.40;;;;;;;;;;6169716;23;20221;-89
2022/11/17 01:17:46;;;;;;;18.13;8.27;;;;;;;;;;6170302;23;20168;-89
2022/11/17 01:20:51;;;;;;;24.90;8.77;;;;;;;;;;6170467;23;20172;-88
2022/11/17 01:23:57;;;;;;;20.33;9.00;;;;;;;;;;6170528;23;20626;-90
2022/11/17 01:27:04;;;;;;;19.87;8.73;;;;;;;;;;6186741;23;20172;-88
2022/11/17 01:30:11;;;;;;;23.17;9.43;;;;;;;;;;6169149;23;20168;-89
2022/11/17 01:33:16;;;;;;;21.30;8.17;;;;;;;;;;6170061;23;20176;-88
2022/11/17 01:36:23;;;;;;;23.17;9.10;;;;;;;;;;6170894;23;20268;-89
2022/11/17 01:39:28;;;;;;;22.43;8.63;;;;;;;;;;6171603;23;20168;-90
2022/11/17 01:42:36;;;;;;;23.13;8.83;;;;;;;;;;6171579;23;20490;-88
2022/11/17 01:45:41;;;;;;;23.70;9.50;;;;;;;;;;6169413;23;20544;-89
2022/11/17 01:48:47;;;;;;;25.87;10.10;;;;;;;;;;6188003;23;20208;-90
2022/11/17 01:51:52;;;;;;;23.50;9.80;;;;;;;;;;6170316;23;20173;-91
2022/11/17 01:54:59;;;;;;;24.87;9.67;;;;;;;;;;6168969;23;20172;-91
2022/11/17 01:58:09;;;;;;;23.03;9.53;;;;;;;;;;6169366;23;20169;-89
2022/11/17 02:01:14;;;;;;;27.30;10.17;;;;;;;;;;6169143;23;20496;-90
2022/11/17 02:04:20;;;;;;;23.80;9.77;;;;;;;;;;6169353;23;20189;-91
2022/11/17 02:07:26;;;;;;;26.43;9.20;;;;;;;;;;6169504;23;20169;-90
2022/11/17 02:10:33;;;;;;;24.52;9.95;;;;;;;;;;6169485;23;20231;-90
2022/11/17 02:13:41;;;;;;;27.42;10.88;;;;;;;;;;6168266;23;20169;-89
2022/11/17 02:16:46;;;;;;;29.15;10.38;;;;;;;;;;6169829;23;20172;-90
2022/11/17 02:20:00;;;;;;;22.98;9.30;;;;;;;;;;6167861;23;20172;-89
2022/11/17 02:23:23;;;;;;;27.92;9.88;;;;;;;;;;6167353;23;20157;-89
2022/11/17 02:26:40;;;;;;;29.20;10.45;;;;;;;;;;6133725;23;20291;-92
2022/11/17 02:29:50;;;;;;;29.80;10.15;;;;;;;;;;6168235;23;20270;-91
2022/11/17 02:33:02;;;;;;;32.85;10.75;;;;;;;;;;6177924;23;20207;-89
2022/11/17 02:36:09;;;;;;;28.90;10.27;;;;;;;;;;6152032;23;20173;-88
2022/11/17 02:39:19;;;;;;;29.05;10.50;;;;;;;;;;6128097;23;20303;-89
2022/11/17 02:44:02;;;;;;;31.45;11.35;;;;;;;;;;6150914;23;20184;-88
2022/11/17 02:46:30;;;;;;;24.42;9.35;;;;;;;;;;6149580;23;20203;-89
2022/11/17 02:49:37;;;;;;;30.25;10.50;;;;;;;;;;6149978;23;20169;-90
2022/11/17 02:52:42;;;;;;;26.23;9.52;;;;;;;;;;6149948;23;20192;-91
2022/11/17 02:55:51;;;;;;;24.80;9.23;;;;;;;;;;6150555;23;20176;-91
2022/11/17 02:58:58;;;;;;;26.50;9.93;;;;;;;;;;6150590;23;20173;-89
2022/11/17 03:02:21;;;;;;;24.53;8.93;;;;;;;;;;6150180;23;20172;-90
2022/11/17 03:05:30;;;;;;;26.08;9.10;;;;;;;;;;6150041;23;20197;-91
2022/11/17 03:08:39;;;;;;;27.30;9.75;;;;;;;;;;6150718;23;20169;-90
2022/11/17 03:11:46;;;;;;;26.52;9.80;;;;;;;;;;6149148;23;20225;-87
2022/11/17 03:14:58;;;;;;;29.07;10.00;;;;;;;;;;6150037;23;20153;-87
2022/11/17 03:18:08;;;;;;;25.63;9.30;;;;;;;;;;6150769;23;20169;-91
2022/11/17 03:21:18;;;;;;;30.33;11.13;;;;;;;;;;6150594;23;20172;-92
2022/11/17 03:24:24;;;;;;;28.33;10.07;;;;;;;;;;6150357;23;20177;-89
2022/11/17 03:27:32;;;;;;;26.58;10.45;;;;;;;;;;6149132;23;20208;-88
2022/11/17 03:30:38;;;;;;;26.55;9.02;;;;;;;;;;6149450;23;20176;-89
2022/11/17 03:33:45;;;;;;;22.47;9.80;;;;;;;;;;6148707;23;20242;-89
2022/11/17 03:36:54;;;;;;;25.08;9.00;;;;;;;;;;6149324;23;20184;-90
2022/11/17 03:40:02;;;;;;;20.17;8.68;;;;;;;;;;6148312;23;20191;-90
2022/11/17 03:43:08;;;;;;;24.08;8.85;;;;;;;;;;6105056;23;20241;-87
2022/11/17 03:46:15;;;;;;;25.60;8.77;;;;;;;;;;5903064;24;20224;-88
2022/11/17 03:49:23;;;;;;;22.20;8.83;;;;;;;;;;5714419;24;1234148;-90
2022/11/17 03:52:30;;;;;;;21.20;8.63;;;;;;;;;;5820978;24;20230;-90
2022/11/17 03:55:38;;;;;;;21.00;8.57;;;;;;;;;;5821660;24;20178;-91
2022/11/17 03:58:46;;;;;;;20.85;8.75;;;;;;;;;;5821168;24;20207;-88
2022/11/17 04:01:51;;;;;;;20.40;7.90;;;;;;;;;;5819811;24;20654;-88
2022/11/17 04:05:05;;;;;;;16.38;7.45;;;;;;;;;;5820771;24;20174;-90
2022/11/17 04:08:11;;;;;;;14.57;7.00;;;;;;;;;;5819654;24;20178;-89
2022/11/17 04:18:02;;;;;;;12.73;5.97;;;;;;;;;;5821983;24;20182;-91
2022/11/17 04:21:07;;;;;;;13.45;6.10;;;;;;;;;;5822849;24;20177;-90
2022/11/17 04:24:14;;;;;;;11.25;5.80;;;;;;;;;;5820313;24;20228;-89
2022/11/17 04:30:41;;;;;;;12.30;5.88;;;;;;;;;;5820603;24;20272;-88
2022/11/17 04:33:47;;;;;;;15.82;6.45;;;;;;;;;;5820578;24;20173;-88
2022/11/17 04:36:53;;;;;;;16.45;6.60;;;;;;;;;;5819815;24;20173;-91
2022/11/17 04:39:59;;;;;;;15.13;6.57;;;;;;;;;;5819954;24;20173;-91
2022/11/17 04:43:06;;;;;;;13.60;6.35;;;;;;;;;;5819741;24;20185;-88
2022/11/17 04:46:28;;;;;;;15.98;6.38;;;;;;;;;;5819371;24;20188;-88
2022/11/17 04:49:33;;;;;;;15.53;5.90;;;;;;;;;;5937994;23;20196;-89
2022/11/17 20:29:25;;;;;;;39.17;17.27;;;;;;;;;;6179596;22;2400676;-91
2022/11/17 20:32:32;;;;;;;42.97;17.33;;;;;;;;;;6233084;23;20169;-90
2022/11/17 20:35:38;;;;;;;39.80;16.83;;;;;;;;;;6241546;23;20182;-91
2022/11/17 20:38:43;;;;;;;35.63;17.30;;;;;;;;;;6242423;23;20671;-90
2022/11/17 20:41:48;;;;;;;46.67;20.07;;;;;;;;;;6242220;23;20190;-90
2022/11/17 20:44:54;;;;;;;40.97;18.70;;;;;;;;;;6242886;23;20182;-88
2022/11/17 20:48:00;;;;;;;41.13;18.80;;;;;;;;;;6246248;23;20166;-92
2022/11/17 20:51:06;;;;;;;44.47;19.07;;;;;;;;;;6246096;23;20193;-90
2022/11/17 20:54:23;;;;;;;41.17;19.40;;;;;;;;;;6243722;23;20197;-91
2022/11/17 20:57:29;;;;;;;44.70;18.47;;;;;;;;;;6241823;23;20166;-90
2022/11/17 21:00:36;;;;;;;40.27;18.00;;;;;;;;;;6242378;23;20167;-92
2022/11/17 21:03:42;;;;;;;35.53;16.57;;;;;;;;;;6243449;23;20210;-90
2022/11/17 21:06:47;;;;;;;32.63;15.00;;;;;;;;;;6243358;23;20175;-90
2022/11/17 21:09:52;;;;;;;33.80;15.70;;;;;;;;;;6243682;23;20186;-90
2022/11/17 21:12:58;;;;;;;36.87;15.47;;;;;;;;;;6241160;23;20166;-89
2022/11/17 21:16:06;;;;;;;35.97;16.00;;;;;;;;;;6240263;23;20167;-91
2022/11/17 21:19:11;;;;;;;37.97;16.07;;;;;;;;;;6241545;22;20186;-89
2022/11/17 21:22:18;;;;;;;37.07;15.03;;;;;;;;;;6242664;22;20166;-91
2022/11/17 21:25:24;;;;;;;41.73;17.43;;;;;;;;;;6242967;23;20234;-93
2022/11/17 21:28:30;;;;;;;39.63;17.97;;;;;;;;;;6242505;23;20209;-90
2022/11/17 21:31:37;;;;;;;38.50;16.33;;;;;;;;;;6222442;23;20652;-90
2022/11/17 21:34:42;;;;;;;41.33;16.80;;;;;;;;;;6179532;23;20187;-90
2022/11/17 21:37:48;;;;;;;39.63;17.00;;;;;;;;;;6190483;23;20286;-89
2022/11/17 21:40:53;;;;;;;38.23;16.97;;;;;;;;;;6201799;23;20188;-89
2022/11/17 21:44:02;;;;;;;37.30;16.90;;;;;;;;;;6202036;23;20172;-89
2022/11/17 21:51:32;;;;;;;40.30;17.53;;;;;;;;;;6204328;23;20147;-89
2022/11/17 21:54:37;;;;;;;34.10;15.47;;;;;;;;;;6202791;23;20196;-91
2022/11/17 21:57:44;;;;;;;35.37;15.00;;;;;;;;;;6202854;23;20623;-91
2022/11/17 22:00:50;;;;;;;41.50;19.03;;;;;;;;;;6202179;23;20559;-90
2022/11/17 22:03:55;;;;;;;38.27;15.70;;;;;;;;;;6203348;23;20180;-88
2022/11/17 22:07:02;;;;;;;40.13;18.07;;;;;;;;;;6202656;23;20171;-89
2022/11/17 22:10:10;;;;;;;35.23;15.23;;;;;;;;;;6202183;23;20192;-91
2022/11/17 22:13:16;;;;;;;37.73;16.23;;;;;;;;;;6202972;23;20168;-90
2022/11/17 22:16:21;;;;;;;36.60;16.53;;;;;;;;;;6203079;23;20192;-90
2022/11/17 22:19:28;;;;;;;39.03;16.47;;;;;;;;;;6202896;23;20184;-91
2022/11/17 22:22:35;;;;;;;43.00;17.57;;;;;;;;;;6202770;23;20618;-90
2022/11/17 22:25:40;;;;;;;46.13;19.03;;;;;;;;;;6203003;23;20167;-90
2022/11/17 22:28:46;;;;;;;61.80;23.37;;;;;;;;;;6203712;23;20188;-91
2022/11/17 22:31:51;;;;;;;42.83;18.53;;;;;;;;;;6200383;23;20167;-91
2022/11/17 22:35:00;;;;;;;47.33;19.03;;;;;;;;;;6202526;23;20164;-89
2022/11/17 22:38:06;;;;;;;44.70;17.90;;;;;;;;;;6210003;23;20195;-91
2022/11/17 22:41:14;;;;;;;40.17;16.60;;;;;;;;;;6203727;23;20199;-90
2022/11/17 22:44:19;;;;;;;42.67;18.40;;;;;;;;;;6202830;23;20168;-90
2022/11/17 22:47:24;;;;;;;50.73;22.13;;;;;;;;;;6200336;23;20526;-89
2022/11/17 22:50:33;;;;;;;44.60;21.20;;;;;;;;;;6198246;23;20160;-91
2022/11/17 22:53:39;;;;;;;35.57;16.10;;;;;;;;;;6196952;23;20492;-89
2022/11/17 22:56:44;;;;;;;35.77;15.67;;;;;;;;;;6199693;23;20172;-89
2022/11/17 22:59:50;;;;;;;38.97;15.97;;;;;;;;;;6198728;23;20745;-90
2022/11/17 23:03:12;;;;;;;33.53;14.57;;;;;;;;;;6199596;23;20183;-91
2022/11/17 23:06:18;;;;;;;35.43;15.73;;;;;;;;;;6199310;23;20253;-90
2022/11/17 23:09:25;;;;;;;33.40;13.43;;;;;;;;;;6198519;23;20219;-90
2022/11/17 23:12:30;;;;;;;33.57;14.27;;;;;;;;;;6198134;23;20240;-91
2022/11/17 23:15:38;;;;;;;31.57;13.23;;;;;;;;;;6198326;23;20167;-91
2022/11/17 23:18:43;;;;;;;32.37;13.63;;;;;;;;;;6198170;23;20682;-91
2022/11/17 23:21:48;;;;;;;33.40;13.53;;;;;;;;;;6199295;23;20176;-90
2022/11/17 23:24:55;;;;;;;34.13;14.47;;;;;;;;;;6200502;23;20199;-90
2022/11/17 23:28:01;;;;;;;35.63;14.70;;;;;;;;;;6199749;23;20168;-91
2022/11/17 23:31:07;;;;;;;34.87;14.77;;;;;;;;;;6200371;23;20188;-90
2022/11/17 23:34:12;;;;;;;41.43;15.73;;;;;;;;;;6199559;23;20300;-89
2022/11/17 23:37:18;;;;;;;40.80;15.43;;;;;;;;;;6215288;23;20197;-92
2022/11/17 23:40:25;;;;;;;38.83;15.07;;;;;;;;;;6229306;23;20207;-91
2022/11/17 23:43:30;;;;;;;36.17;14.97;;;;;;;;;;6229098;23;20166;-90
2022/11/17 23:46:57;;;;;;;39.77;15.00;;;;;;;;;;6228002;23;20191;-89
2022/11/17 23:50:02;;;;;;;36.53;15.17;;;;;;;;;;6227683;23;20172;-91
2022/11/17 23:53:08;;;;;;;47.93;16.97;;;;;;;;;;6230261;23;20167;-90
2022/11/17 23:56:25;;;;;;;42.47;17.00;;;;;;;;;;6229172;23;20233;-90
2022/11/17 23:59:30;;;;;;;41.83;15.60;;;;;;;;;;6233343;23;20195;-89
